createdAt,value
2022-09-01T00:12:36.818Z,100.00
2022-09-01T00:27:39.094Z,100.00
2022-09-01T00:42:43.462Z,100.00
2022-09-01T00:57:45.711Z,100.00
2022-09-01T01:12:51.758Z,100.00
2022-09-01T01:28:13.682Z,100.00
2022-09-01T01:43:20.075Z,100.00
2022-09-01T01:58:22.706Z,100.00
2022-09-01T02:13:30.286Z,100.00
2022-09-01T02:28:34.909Z,100.00
2022-09-01T02:43:39.928Z,100.00
2022-09-01T02:58:46.134Z,100.00
2022-09-01T03:13:48.858Z,100.00
2022-09-01T03:28:51.457Z,100.00
2022-09-01T03:43:54.984Z,100.00
2022-09-01T03:58:58.891Z,100.00
2022-09-01T04:14:01.561Z,100.00
2022-09-01T04:29:06.798Z,100.00
2022-09-01T04:44:09.588Z,100.00
2022-09-01T04:59:14.905Z,100.00
2022-09-01T05:14:21.444Z,100.00
2022-09-01T05:29:24.298Z,100.00
2022-09-01T05:44:28.959Z,100.00
2022-09-01T05:59:31.469Z,100.00
2022-09-01T06:14:38.997Z,100.00
2022-09-01T06:29:41.617Z,100.00
2022-09-01T06:44:47.663Z,100.00
2022-09-01T06:59:50.277Z,100.00
2022-09-01T07:30:20.939Z,100.00
2022-09-01T07:45:28.197Z,100.00
2022-09-01T08:00:37.133Z,100.00
2022-09-01T08:16:06.932Z,100.00
2022-09-01T08:31:11.303Z,100.00
2022-09-01T08:46:30.479Z,100.00
2022-09-01T09:02:00.599Z,100.00
2022-09-01T09:17:04.298Z,100.00
2022-09-01T09:32:22.458Z,100.00
2022-09-01T09:47:54.885Z,100.00
2022-09-01T10:03:09.998Z,100.00
2022-09-01T10:18:28.954Z,100.00
2022-09-01T10:33:31.678Z,100.00
2022-09-01T10:48:46.290Z,100.00
2022-09-01T11:03:56.393Z,100.00
2022-09-01T11:19:34.909Z,100.00
2022-09-01T11:34:41.904Z,100.00
2022-09-01T11:50:00.127Z,100.00
2022-09-01T12:05:04.295Z,100.00
2022-09-01T12:20:29.931Z,92.36
2022-09-01T12:35:32.280Z,83.25
2022-09-01T12:50:35.965Z,83.76
2022-09-01T13:05:42.644Z,89.67
2022-09-01T13:20:45.030Z,91.29
2022-09-01T13:35:47.752Z,93.79
2022-09-01T14:06:12.725Z,90.44
2022-09-01T14:21:15.444Z,99.69
2022-09-01T14:36:25.346Z,94.77
2022-09-01T15:06:52.313Z,81.95
2022-09-01T15:21:54.504Z,81.62
2022-09-01T15:36:59.727Z,86.82
2022-09-01T15:52:02.000Z,85.07
2022-09-01T16:07:04.227Z,96.23
2022-09-01T16:22:28.605Z,87.02
2022-09-01T16:37:48.989Z,88.41
2022-09-01T16:53:08.392Z,98.59
2022-09-01T17:08:26.798Z,94.50
2022-09-01T17:23:31.942Z,100.00
2022-09-01T17:38:46.135Z,97.26
2022-09-01T17:53:58.037Z,100.00
2022-09-01T18:09:00.326Z,100.00
2022-09-01T18:24:35.881Z,100.00
2022-09-01T18:40:03.140Z,100.00
2022-09-01T18:55:21.179Z,100.00
2022-09-01T19:10:31.440Z,100.00
2022-09-01T19:25:33.672Z,100.00
2022-09-01T19:40:37.398Z,100.00
2022-09-01T19:55:45.204Z,100.00
2022-09-01T20:11:01.204Z,100.00
2022-09-01T20:26:10.818Z,100.00
2022-09-01T20:41:19.477Z,100.00
2022-09-01T20:56:45.585Z,100.00
2022-09-01T21:11:49.339Z,100.00
2022-09-01T21:26:52.080Z,100.00
2022-09-01T21:41:54.298Z,100.00
2022-09-01T21:56:56.491Z,100.00
2022-09-01T22:11:58.703Z,100.00
2022-09-01T22:27:00.938Z,100.00
2022-09-01T22:42:03.808Z,100.00
2022-09-01T22:57:06.013Z,100.00
2022-09-01T23:12:08.255Z,100.00
2022-09-01T23:27:10.471Z,100.00
2022-09-01T23:42:12.723Z,100.00
2022-09-01T23:57:15.348Z,100.00
